Time;durP1;ratioP1;P1;durP2;ratioP2;P2;SDS_P1;SDS_P2;PMS_P1;PMS_P2;Temp;Humidity;BMP_temperature;BMP_pressure;BME280_temperature;BME280_humidity;BME280_pressure;Samples;Min_cycle;Max_cycle;Signal;HPM_P1;HPM_P2
2021/06/19 00:01:44;;;;;;;14.10;12.65;;;27.90;66.50;;;;;;5092685;28;19957;-60
2021/06/19 00:04:32;;;;;;;15.40;13.27;;;28.10;66.40;;;;;;5092884;28;20059;-60
2021/06/19 00:07:20;;;;;;;14.68;13.32;;;28.20;66.30;;;;;;5092581;28;20054;-59
2021/06/19 00:10:06;;;;;;;14.40;13.10;;;28.20;66.10;;;;;;5077362;28;20035;-60
2021/06/19 00:12:51;;;;;;;13.80;12.40;;;28.20;66.10;;;;;;5092267;28;20031;-61
2021/06/19 00:15:36;;;;;;;13.77;12.30;;;28.20;66.10;;;;;;5092668;28;20043;-61
2021/06/19 00:18:21;;;;;;;13.93;12.63;;;28.20;66.30;;;;;;5092073;28;20035;-58
2021/06/19 00:21:05;;;;;;;12.77;11.57;;;28.20;66.70;;;;;;5077023;28;20043;-58
2021/06/19 00:23:49;;;;;;;;;;;28.00;66.90;;;;;;5092050;28;20035;-59
2021/06/19 00:26:33;;;;;;;16.17;11.30;;;27.90;67.50;;;;;;5091906;28;19954;-58
2021/06/19 00:29:18;;;;;;;;;;;27.80;68.20;;;;;;5077991;28;20024;-58
2021/06/19 00:32:02;;;;;;;14.70;13.35;;;27.50;69.20;;;;;;5092657;28;19915;-58
2021/06/19 00:34:46;;;;;;;16.70;13.45;;;27.40;69.90;;;;;;5095519;28;20399;-60
2021/06/19 00:37:33;;;;;;;15.40;13.88;;;27.40;70.10;;;;;;5077837;28;20120;-60
2021/06/19 00:40:19;;;;;;;15.02;13.63;;;27.40;70.00;;;;;;5092173;28;20502;-61
2021/06/19 00:43:04;;;;;;;17.42;15.68;;;27.50;69.90;;;;;;5092607;28;20482;-58
2021/06/19 00:45:48;;;;;;;16.35;14.65;;;27.40;70.10;;;;;;5093730;28;20183;-58
2021/06/19 00:48:32;;;;;;;16.40;13.85;;;27.20;70.80;;;;;;5094447;28;20031;-57
2021/06/19 00:51:16;;;;;;;13.15;11.82;;;27.10;71.00;;;;;;5094332;28;20039;-60
2021/06/19 00:54:01;;;;;;;14.25;12.70;;;26.90;71.10;;;;;;5068362;28;20070;-58
2021/06/19 00:56:46;;;;;;;13.40;12.15;;;26.80;71.00;;;;;;5095888;28;20047;-58
2021/06/19 00:59:30;;;;;;;13.18;11.88;;;26.50;72.50;;;;;;5093314;28;20510;-60
2021/06/19 01:02:14;;;;;;;13.93;11.60;;;26.40;73.00;;;;;;5094465;28;20558;-58
2021/06/19 01:04:59;;;;;;;13.38;12.07;;;26.30;72.60;;;;;;5093623;28;20089;-60
2021/06/19 01:07:43;;;;;;;14.40;12.98;;;26.30;73.50;;;;;;5079592;28;20104;-59
2021/06/19 01:10:28;;;;;;;14.00;12.60;;;26.40;73.50;;;;;;5096230;28;20558;-58
2021/06/19 01:13:13;;;;;;;12.05;10.95;;;26.30;74.10;;;;;;5096941;28;20039;-58
2021/06/19 01:15:58;;;;;;;;;;;26.30;73.80;;;;;;5098390;28;20039;-60
2021/06/19 01:18:42;;;;;;;11.73;10.57;;;26.30;74.00;;;;;;5097540;28;20041;-59
2021/06/19 01:21:29;;;;;;;12.93;11.27;;;26.30;74.20;;;;;;5081921;28;20081;-55
2021/06/19 01:24:15;;;;;;;12.60;11.45;;;26.30;74.40;;;;;;5099136;28;20039;-58
2021/06/19 01:26:59;;;;;;;13.52;12.20;;;26.50;74.40;;;;;;5097635;28;20414;-56
2021/06/19 01:29:43;;;;;;;13.48;12.27;;;26.60;74.50;;;;;;5097804;28;20073;-59
2021/06/19 01:32:33;;;;;;;14.63;12.32;;;26.60;74.30;;;;;;5101956;28;20564;-60
2021/06/19 01:35:18;;;;;;;12.93;11.73;;;26.70;74.00;;;;;;5085611;28;20035;-57
2021/06/19 01:38:05;;;;;;;13.77;12.43;;;26.70;73.60;;;;;;5098116;28;20120;-60
2021/06/19 01:40:50;;;;;;;14.27;12.35;;;26.80;73.40;;;;;;5096755;28;20031;-56
2021/06/19 01:43:34;;;;;;;13.02;11.77;;;26.80;73.60;;;;;;5096092;28;20031;-60
2021/06/19 01:46:19;;;;;;;11.85;10.77;;;26.90;73.80;;;;;;5095828;28;20085;-58
2021/06/19 01:49:03;;;;;;;13.10;11.77;;;26.80;74.10;;;;;;5096400;28;20046;-60
2021/06/19 01:51:48;;;;;;;13.93;12.20;;;26.80;74.40;;;;;;5095409;28;20073;-59
2021/06/19 01:54:38;;;;;;;12.90;11.65;;;26.70;74.40;;;;;;5079559;28;20088;-59
2021/06/19 01:57:22;;;;;;;13.45;11.60;;;26.70;74.60;;;;;;5094690;28;20051;-58
2021/06/19 02:00:06;;;;;;;;;;;26.60;75.00;;;;;;5095309;28;20027;-60
2021/06/19 02:02:51;;;;;;;12.82;11.73;;;26.50;75.10;;;;;;5095822;28;19934;-57
2021/06/19 02:05:36;;;;;;;12.98;11.40;;;26.40;75.10;;;;;;5095540;28;20403;-60
2021/06/19 02:08:21;;;;;;;12.77;11.68;;;26.20;75.60;;;;;;5094928;28;20097;-58
2021/06/19 02:11:07;;;;;;;13.90;11.25;;;26.10;76.30;;;;;;5095654;28;20111;-60
2021/06/19 02:13:51;;;;;;;13.85;12.35;;;26.00;76.10;;;;;;5095840;28;20035;-60
2021/06/19 02:16:35;;;;;;;12.77;11.48;;;25.80;75.90;;;;;;5094707;28;20506;-58
2021/06/19 02:19:19;;;;;;;;;;;25.80;76.30;;;;;;5094869;28;20181;-60
2021/06/19 02:22:05;;;;;;;13.27;11.73;;;25.70;76.90;;;;;;5094752;28;20315;-56
2021/06/19 02:24:49;;;;;;;12.95;11.77;;;25.70;77.50;;;;;;5094940;28;20437;-58
2021/06/19 02:27:32;;;;;;;12.50;11.27;;;25.70;77.80;;;;;;5093459;28;20574;-60
2021/06/19 02:30:17;;;;;;;;;;;25.80;77.90;;;;;;5095331;28;20085;-60
2021/06/19 02:33:03;;;;;;;12.77;11.50;;;25.70;78.20;;;;;;5081744;28;19958;-56
2021/06/19 02:35:50;;;;;;;12.70;11.50;;;25.70;78.30;;;;;;5079171;28;20031;-59
2021/06/19 02:38:34;;;;;;;13.07;11.85;;;25.60;78.40;;;;;;5094184;28;20039;-59
2021/06/19 02:41:18;;;;;;;12.88;11.70;;;25.60;78.30;;;;;;5094235;28;20031;-59
2021/06/19 02:44:03;;;;;;;12.95;11.65;;;25.60;77.80;;;;;;5093426;28;20039;-55
2021/06/19 02:46:47;;;;;;;15.57;12.48;;;25.60;77.60;;;;;;5094434;28;20062;-59
2021/06/19 02:49:31;;;;;;;12.57;11.35;;;25.50;78.30;;;;;;5093942;28;20359;-57
2021/06/19 02:52:15;;;;;;;16.58;13.18;;;24.40;83.30;;;;;;5093686;28;20534;-58
2021/06/19 02:54:59;;;;;;;15.30;13.85;;;24.50;81.30;;;;;;5093747;28;20659;-58
2021/06/19 02:57:44;;;;;;;13.98;12.75;;;24.60;81.30;;;;;;5093288;28;20124;-59
2021/06/19 03:00:28;;;;;;;13.23;12.02;;;24.70;81.00;;;;;;5093071;28;20116;-59
2021/06/19 03:03:13;;;;;;;13.60;12.18;;;24.90;80.70;;;;;;5093152;28;20027;-59
2021/06/19 03:06:00;;;;;;;12.43;11.23;;;24.90;80.50;;;;;;5093357;28;20043;-60
2021/06/19 03:08:45;;;;;;;12.55;10.90;;;25.00;80.30;;;;;;5093413;28;20101;-58
2021/06/19 03:11:29;;;;;;;12.85;11.55;;;25.00;80.50;;;;;;5093477;28;20050;-57
2021/06/19 03:14:15;;;;;;;12.75;11.40;;;24.90;80.80;;;;;;5094295;28;20128;-60
2021/06/19 03:17:00;;;;;;;12.73;11.65;;;24.90;81.50;;;;;;5094246;28;20047;-57
2021/06/19 03:19:44;;;;;;;12.25;11.15;;;25.00;80.80;;;;;;5094001;28;20086;-57
2021/06/19 03:22:28;;;;;;;12.55;11.23;;;25.00;80.60;;;;;;5093162;28;20092;-58
2021/06/19 03:25:42;;;;;;;13.85;12.43;;;25.10;80.60;;;;;;5095483;28;20063;-54
2021/06/19 03:28:27;;;;;;;15.95;14.25;;;25.20;80.30;;;;;;5069854;28;20090;-59
2021/06/19 03:31:11;;;;;;;16.77;15.25;;;25.10;80.40;;;;;;5093234;28;20030;-57
2021/06/19 03:33:55;;;;;;;17.98;16.20;;;25.20;80.30;;;;;;5093218;28;20066;-58
2021/06/19 03:36:39;;;;;;;;;;;25.10;80.20;;;;;;5078137;28;20521;-59
2021/06/19 03:39:24;;;;;;;16.00;14.60;;;25.10;80.10;;;;;;5093321;28;19969;-58
2021/06/19 03:42:10;;;;;;;15.93;14.35;;;25.20;80.20;;;;;;5092696;28;20050;-58
2021/06/19 03:44:54;;;;;;;15.10;13.07;;;25.20;80.20;;;;;;5092782;28;20035;-54
2021/06/19 03:47:39;;;;;;;13.90;12.60;;;25.20;80.20;;;;;;5093127;28;20498;-55
2021/06/19 03:50:26;;;;;;;14.50;13.05;;;25.30;80.60;;;;;;5093052;28;20086;-60
2021/06/19 03:53:10;;;;;;;14.52;13.32;;;25.30;79.70;;;;;;5093147;28;20146;-55
2021/06/19 03:55:55;;;;;;;13.23;12.00;;;25.40;79.60;;;;;;5092592;28;20035;-57
2021/06/19 03:58:39;;;;;;;13.18;11.85;;;25.30;79.60;;;;;;5077576;28;20081;-58
2021/06/19 04:01:23;;;;;;;14.25;12.75;;;25.40;79.50;;;;;;5092532;28;20505;-58
2021/06/19 04:04:07;;;;;;;13.98;12.40;;;25.50;79.20;;;;;;5064181;28;20587;-59
2021/06/19 04:06:51;;;;;;;13.80;12.32;;;25.50;79.10;;;;;;5066209;28;20105;-59
2021/06/19 04:09:35;;;;;;;;;;;25.60;78.90;;;;;;5079395;28;20434;-60
2021/06/19 04:12:23;;;;;;;14.53;13.23;;;25.60;78.90;;;;;;5092001;28;20414;-61
2021/06/19 04:15:09;;;;;;;13.70;12.15;;;25.60;79.00;;;;;;5092431;28;20262;-56
2021/06/19 04:17:55;;;;;;;12.88;11.77;;;25.70;78.90;;;;;;5091870;28;20070;-56
2021/06/19 04:20:39;;;;;;;13.13;11.77;;;25.60;79.20;;;;;;5077580;28;20062;-58
2021/06/19 04:23:23;;;;;;;13.60;11.75;;;25.60;79.50;;;;;;5092453;28;20116;-54
2021/06/19 04:26:07;;;;;;;12.25;11.25;;;25.60;79.80;;;;;;5092206;28;20077;-60
2021/06/19 04:28:51;;;;;;;13.48;12.07;;;25.60;79.70;;;;;;5093275;28;20567;-57
2021/06/19 04:31:35;;;;;;;13.88;12.52;;;25.60;79.20;;;;;;5092335;28;20123;-57
2021/06/19 04:34:20;;;;;;;19.27;13.70;;;25.60;78.70;;;;;;5091998;28;20043;-57
2021/06/19 04:37:04;;;;;;;15.20;13.70;;;25.60;78.60;;;;;;5092237;28;20043;-59
2021/06/19 04:39:53;;;;;;;13.30;12.00;;;25.50;78.10;;;;;;5076683;28;20100;-57
2021/06/19 04:42:39;;;;;;;13.82;12.63;;;25.40;78.60;;;;;;5079401;28;20031;-58
2021/06/19 04:45:26;;;;;;;14.30;12.90;;;25.40;78.60;;;;;;5096755;28;20069;-57
2021/06/19 04:48:10;;;;;;;14.50;13.07;;;25.50;78.80;;;;;;5097085;28;20518;-58
2021/06/19 04:50:54;;;;;;;14.57;13.25;;;25.50;78.60;;;;;;5081776;28;20043;-60
2021/06/19 04:53:38;;;;;;;15.10;13.43;;;25.30;79.00;;;;;;5081830;28;20043;-59
2021/06/19 04:56:22;;;;;;;17.73;15.60;;;25.20;79.30;;;;;;5096951;28;20122;-59
2021/06/19 04:59:06;;;;;;;15.65;14.15;;;25.20;78.90;;;;;;5096810;28;20436;-60
2021/06/19 05:01:50;;;;;;;15.95;14.30;;;25.30;77.90;;;;;;5092188;28;20043;-61
2021/06/19 05:04:34;;;;;;;20.08;18.17;;;25.30;77.60;;;;;;5075168;28;20566;-58
2021/06/19 05:07:19;;;;;;;16.05;14.68;;;25.40;77.10;;;;;;5090705;28;20046;-58
2021/06/19 05:10:05;;;;;;;15.02;13.80;;;25.60;76.80;;;;;;5085314;28;20039;-58
2021/06/19 05:12:50;;;;;;;14.85;13.40;;;25.60;76.50;;;;;;5078671;28;20066;-59
2021/06/19 05:15:34;;;;;;;13.70;12.50;;;25.60;76.10;;;;;;5075823;28;20032;-56
2021/06/19 05:18:18;;;;;;;13.48;12.18;;;25.80;75.70;;;;;;5070962;28;20048;-54
2021/06/19 05:21:03;;;;;;;13.05;11.93;;;25.90;74.80;;;;;;5075728;28;20514;-57
2021/06/19 05:23:47;;;;;;;14.40;12.90;;;26.00;74.20;;;;;;5073944;28;20038;-58
2021/06/19 05:26:31;;;;;;;12.70;11.55;;;26.20;73.20;;;;;;5076673;28;20028;-58
2021/06/19 05:29:15;;;;;;;12.00;10.85;;;26.10;72.90;;;;;;5059343;28;20035;-57
2021/06/19 05:31:59;;;;;;;13.50;11.60;;;26.20;71.70;;;;;;5076278;28;20028;-56
2021/06/19 05:35:03;;;;;;;17.17;11.55;;;26.30;71.80;;;;;;5082092;28;20390;-57
2021/06/19 05:37:51;;;;;;;11.68;10.68;;;26.40;71.50;;;;;;5073885;28;20050;-60
2021/06/19 05:40:36;;;;;;;12.65;11.45;;;26.50;71.50;;;;;;5077510;28;20048;-57
2021/06/19 05:43:20;;;;;;;12.82;11.70;;;26.60;71.90;;;;;;5059020;28;20538;-55
2021/06/19 05:46:04;;;;;;;25.45;15.45;;;26.50;71.90;;;;;;5074416;28;20051;-61
2021/06/19 05:48:48;;;;;;;13.55;12.27;;;26.50;72.10;;;;;;5058820;28;20032;-59
2021/06/19 05:51:33;;;;;;;12.65;11.43;;;26.60;71.20;;;;;;5076195;28;20442;-59
2021/06/19 05:54:17;;;;;;;13.20;11.85;;;26.50;71.00;;;;;;5072825;28;20154;-58
2021/06/19 05:57:01;;;;;;;13.77;12.25;;;26.60;70.70;;;;;;5086536;28;20459;-59
2021/06/19 05:59:45;;;;;;;10.93;9.75;;;26.60;70.50;;;;;;5094267;28;20395;-60
2021/06/19 06:02:29;;;;;;;11.25;10.25;;;26.50;70.40;;;;;;5094819;28;20086;-60
2021/06/19 06:05:14;;;;;;;11.13;9.85;;;26.50;71.10;;;;;;5076242;28;20095;-60
2021/06/19 06:08:00;;;;;;;11.98;10.73;;;26.40;71.50;;;;;;5073898;28;20093;-59
2021/06/19 06:11:05;;;;;;;11.05;10.05;;;26.50;71.40;;;;;;5074211;28;20028;-59
2021/06/19 06:13:50;;;;;;;11.57;10.48;;;26.50;71.50;;;;;;5074081;28;20059;-59
2021/06/19 06:16:35;;;;;;;16.13;11.27;;;26.60;71.60;;;;;;5067585;28;20055;-58
2021/06/19 06:19:21;;;;;;;11.32;10.23;;;26.80;71.60;;;;;;5056459;28;20063;-58
2021/06/19 06:22:06;;;;;;;13.90;10.43;;;26.70;72.00;;;;;;5053612;28;20091;-60
2021/06/19 06:24:49;;;;;;;10.82;9.73;;;26.90;72.00;;;;;;5057827;28;20585;-58
2021/06/19 06:27:34;;;;;;;10.93;9.85;;;27.00;71.80;;;;;;5073975;28;20170;-58
2021/06/19 06:30:19;;;;;;;11.23;10.10;;;27.00;72.00;;;;;;5093254;28;20058;-60
2021/06/19 06:33:03;;;;;;;11.60;10.45;;;27.20;72.10;;;;;;5063162;28;20100;-56
2021/06/19 06:35:47;;;;;;;;;;;27.30;72.10;;;;;;5093776;28;20034;-58
2021/06/19 06:38:32;;;;;;;12.75;9.77;;;27.30;72.40;;;;;;5093294;28;19965;-59
2021/06/19 06:41:16;;;;;;;11.82;9.95;;;27.20;73.30;;;;;;5095526;28;20034;-60
2021/06/19 06:44:00;;;;;;;10.85;9.82;;;27.20;73.90;;;;;;5081756;28;20538;-60
2021/06/19 06:46:48;;;;;;;11.45;9.93;;;27.10;73.90;;;;;;5093896;28;20548;-58
2021/06/19 06:49:32;;;;;;;15.63;10.27;;;27.20;73.90;;;;;;5070468;28;20098;-60
2021/06/19 06:52:16;;;;;;;13.07;10.48;;;27.30;72.20;;;;;;5093057;28;20035;-60
2021/06/19 06:55:01;;;;;;;11.50;9.75;;;27.30;72.30;;;;;;5094860;28;20034;-62
2021/06/19 06:57:45;;;;;;;11.73;9.88;;;27.30;72.70;;;;;;5091667;28;20457;-57
2021/06/19 07:00:30;;;;;;;11.10;9.77;;;27.40;70.60;;;;;;5076311;28;20066;-61
2021/06/19 07:03:14;;;;;;;;;;;27.40;70.20;;;;;;5092142;28;20113;-61
2021/06/19 07:05:58;;;;;;;13.52;10.50;;;27.50;70.10;;;;;;5091518;28;20114;-62
2021/06/19 07:08:42;;;;;;;;;;;27.70;69.00;;;;;;5076809;28;20426;-58
2021/06/19 07:11:27;;;;;;;14.45;10.07;;;27.50;69.10;;;;;;5092049;28;19953;-61
2021/06/19 07:14:11;;;;;;;11.88;10.23;;;27.40;69.50;;;;;;5092893;28;20449;-60
2021/06/19 07:16:55;;;;;;;11.07;9.98;;;27.40;70.00;;;;;;5094256;28;20035;-60
2021/06/19 07:19:40;;;;;;;11.05;10.05;;;27.40;69.10;;;;;;5094671;28;20066;-60
2021/06/19 07:22:24;;;;;;;12.02;9.65;;;27.40;69.90;;;;;;5075719;28;20518;-59
2021/06/19 07:25:09;;;;;;;;;;;27.50;70.60;;;;;;5077984;28;20180;-60
2021/06/19 07:27:54;;;;;;;11.55;10.20;;;27.60;70.60;;;;;;5080117;28;19950;-60
2021/06/19 07:30:38;;;;;;;11.60;10.43;;;27.80;69.80;;;;;;5093298;28;20131;-60
2021/06/19 07:33:22;;;;;;;;;;;28.10;69.20;;;;;;5084662;28;20104;-59
2021/06/19 07:36:06;;;;;;;14.05;10.10;;;28.10;69.20;;;;;;5083626;28;19916;-58
2021/06/19 07:38:51;;;;;;;10.90;9.80;;;28.20;69.30;;;;;;5081694;28;20463;-60
2021/06/19 07:41:35;;;;;;;11.38;9.30;;;28.10;68.70;;;;;;5077886;28;20030;-60
2021/06/19 07:44:31;;;;;;;11.90;10.68;;;28.20;68.40;;;;;;5092875;28;20046;-60
2021/06/19 07:47:15;;;;;;;9.70;8.90;;;28.30;67.70;;;;;;5066279;28;20039;-60
2021/06/19 07:50:00;;;;;;;10.30;9.27;;;28.30;67.20;;;;;;5077112;28;20057;-60
2021/06/19 07:52:45;;;;;;;;;;;28.20;67.90;;;;;;5093605;28;20522;-60
2021/06/19 07:55:30;;;;;;;10.50;9.43;;;28.20;68.10;;;;;;5078849;28;19959;-58
2021/06/19 07:58:15;;;;;;;16.38;9.75;;;28.20;68.70;;;;;;5092295;28;20062;-60
2021/06/19 08:00:59;;;;;;;10.27;9.25;;;28.50;68.40;;;;;;5091495;28;20035;-62
2021/06/19 08:03:43;;;;;;;;;;;28.80;67.60;;;;;;5091187;28;20028;-61
2021/06/19 08:06:28;;;;;;;12.13;9.30;;;29.10;67.40;;;;;;5093036;28;19919;-60
2021/06/19 08:09:12;;;;;;;9.65;8.73;;;29.20;66.30;;;;;;5076889;28;20035;-58
2021/06/19 08:11:58;;;;;;;10.57;8.90;;;29.30;66.50;;;;;;5092457;28;20063;-59
2021/06/19 08:14:42;;;;;;;10.55;8.50;;;29.50;65.00;;;;;;5092508;28;20487;-59
2021/06/19 08:17:26;;;;;;;10.65;9.55;;;29.50;64.10;;;;;;5091364;28;20465;-58
2021/06/19 08:20:10;;;;;;;;;;;29.50;64.50;;;;;;5079823;28;20732;-61
2021/06/19 08:22:55;;;;;;;9.38;8.48;;;29.60;64.50;;;;;;5079111;28;19977;-59
2021/06/19 08:25:38;;;;;;;;;;;29.70;64.20;;;;;;5078005;28;20114;-62
2021/06/19 08:28:23;;;;;;;9.88;8.77;;;29.70;64.50;;;;;;5092526;28;20048;-60
2021/06/19 08:31:07;;;;;;;;;;;29.70;64.40;;;;;;5092572;28;20097;-60
2021/06/19 08:33:51;;;;;;;11.10;8.90;;;29.50;64.60;;;;;;5082667;28;19955;-63
2021/06/19 08:36:35;;;;;;;;;;;29.60;65.40;;;;;;5091057;28;20394;-61
2021/06/19 08:39:19;;;;;;;11.10;8.38;;;29.60;65.40;;;;;;5093595;28;19977;-62
2021/06/19 08:42:04;;;;;;;10.20;9.27;;;29.90;64.80;;;;;;5077813;28;20657;-59
2021/06/19 08:44:48;;;;;;;11.25;10.15;;;30.10;64.20;;;;;;5063484;28;20027;-61
2021/06/19 08:47:36;;;;;;;11.85;9.57;;;30.20;64.20;;;;;;5092369;28;20503;-60
2021/06/19 08:50:21;;;;;;;12.75;9.52;;;30.50;64.00;;;;;;5092310;28;20053;-61
2021/06/19 08:53:06;;;;;;;12.55;9.20;;;30.50;64.10;;;;;;5085599;28;20093;-61
2021/06/19 08:55:50;;;;;;;11.90;9.88;;;30.60;64.40;;;;;;5092301;28;20532;-61
2021/06/19 08:58:34;;;;;;;11.35;10.32;;;30.60;64.40;;;;;;5091622;28;20062;-61
2021/06/19 09:01:18;;;;;;;14.40;9.95;;;30.70;65.00;;;;;;5089910;28;20075;-59
2021/06/19 09:04:06;;;;;;;14.60;9.20;;;30.80;64.20;;;;;;5071578;28;20509;-60
2021/06/19 09:06:52;;;;;;;11.43;9.75;;;30.70;63.90;;;;;;5091971;28;20088;-60
2021/06/19 09:09:37;;;;;;;11.95;9.38;;;30.60;63.40;;;;;;5072859;28;20115;-59
2021/06/19 09:12:21;;;;;;;10.25;9.23;;;30.90;63.40;;;;;;5064611;28;20031;-59
2021/06/19 09:15:15;;;;;;;11.88;8.77;;;30.90;63.00;;;;;;5091930;28;20086;-61
2021/06/19 09:18:04;;;;;;;10.77;9.02;;;30.90;62.80;;;;;;5091564;28;20514;-58
2021/06/19 09:20:53;;;;;;;11.40;8.90;;;31.20;62.00;;;;;;5091657;28;20035;-59
2021/06/19 09:23:40;;;;;;;13.98;9.90;;;31.40;59.30;;;;;;5091903;28;20534;-60
2021/06/19 09:26:32;;;;;;;16.17;10.27;;;31.40;58.60;;;;;;5091817;28;20075;-61
2021/06/19 09:29:17;;;;;;;15.60;12.02;;;31.40;58.30;;;;;;5094561;28;20023;-58
2021/06/19 09:32:02;;;;;;;16.05;9.70;;;31.60;57.30;;;;;;5066447;28;20034;-61
2021/06/19 09:34:46;;;;;;;14.23;9.90;;;31.60;57.90;;;;;;5067073;28;20046;-61
2021/06/19 09:37:41;;;;;;;11.25;9.55;;;31.70;58.00;;;;;;5095066;28;20043;-58
2021/06/19 09:40:37;;;;;;;13.27;9.43;;;31.80;58.20;;;;;;5090091;28;20173;-67
2021/06/19 09:43:28;;;;;;;13.63;9.32;;;32.00;56.80;;;;;;5095384;28;20035;-69
2021/06/19 09:46:12;;;;;;;19.60;9.88;;;32.00;56.90;;;;;;5090814;28;20027;-69
2021/06/19 09:49:12;;;;;;;14.15;9.73;;;31.90;57.10;;;;;;5078212;28;20502;-57
2021/06/19 09:51:57;;;;;;;15.50;9.73;;;31.70;57.60;;;;;;5080143;28;20556;-59
2021/06/19 09:54:55;;;;;;;13.55;9.23;;;31.90;57.40;;;;;;5086472;28;20055;-59
2021/06/19 09:57:47;;;;;;;12.02;9.35;;;31.80;58.40;;;;;;5088384;28;20027;-58
2021/06/19 10:00:37;;;;;;;13.68;9.40;;;32.00;58.70;;;;;;5094383;28;20031;-55
2021/06/19 10:03:22;;;;;;;16.88;9.98;;;32.00;57.60;;;;;;5088565;28;20039;-58
2021/06/19 10:06:06;;;;;;;11.68;9.27;;;31.80;58.30;;;;;;5088285;28;20106;-59
2021/06/19 10:08:52;;;;;;;11.93;9.68;;;31.90;58.10;;;;;;5093687;28;20038;-59
2021/06/19 10:11:38;;;;;;;12.30;9.65;;;32.20;57.30;;;;;;5081904;28;20035;-60
2021/06/19 10:14:24;;;;;;;10.77;9.77;;;32.30;58.10;;;;;;5093115;28;20039;-61
2021/06/19 10:17:08;;;;;;;10.95;9.82;;;32.30;59.40;;;;;;5094348;28;20058;-61
2021/06/19 10:19:54;;;;;;;19.17;10.13;;;32.50;59.80;;;;;;5095842;28;20031;-61
2021/06/19 10:22:40;;;;;;;13.20;10.07;;;32.40;56.60;;;;;;5094623;28;20071;-60
2021/06/19 10:25:27;;;;;;;19.45;10.38;;;31.90;56.90;;;;;;5094136;28;20051;-59
2021/06/19 10:28:11;;;;;;;13.07;9.77;;;32.00;57.40;;;;;;5093685;28;20445;-58
2021/06/19 10:30:57;;;;;;;15.70;10.20;;;32.00;57.40;;;;;;5099679;28;20027;-58
2021/06/19 10:33:41;;;;;;;12.43;10.52;;;32.20;57.30;;;;;;5085622;28;20044;-59
2021/06/19 10:36:38;;;;;;;15.25;10.07;;;32.10;57.60;;;;;;5091331;28;20112;-59
2021/06/19 10:39:45;;;;;;;12.95;10.43;;;31.90;58.20;;;;;;5093355;28;20040;-59
2021/06/19 10:42:33;;;;;;;18.63;9.63;;;31.90;58.10;;;;;;5084997;28;20395;-60
2021/06/19 10:45:22;;;;;;;15.60;9.00;;;31.80;58.50;;;;;;5089752;28;20099;-59
2021/06/19 10:48:09;;;;;;;15.13;9.63;;;31.60;57.90;;;;;;5084681;28;20502;-59
2021/06/19 10:50:53;;;;;;;15.15;9.48;;;31.60;57.90;;;;;;5075029;28;20062;-57
2021/06/19 10:54:06;;;;;;;12.57;9.85;;;31.90;58.20;;;;;;5058054;28;20392;-59
2021/06/19 10:56:57;;;;;;;15.27;8.43;;;32.10;58.00;;;;;;5072486;28;20038;-60
2021/06/19 10:59:41;;;;;;;16.77;10.23;;;32.00;57.20;;;;;;5072660;28;20538;-58
2021/06/19 11:02:48;;;;;;;15.57;11.30;;;32.20;56.60;;;;;;5079741;28;20039;-58
2021/06/19 11:05:41;;;;;;;11.32;10.00;;;32.00;58.70;;;;;;5075161;28;20035;-59
2021/06/19 11:08:27;;;;;;;16.30;10.32;;;32.10;59.00;;;;;;5074750;28;20063;-58
2021/06/19 11:11:11;;;;;;;13.80;10.13;;;32.30;57.80;;;;;;5078516;28;20070;-60
2021/06/19 11:13:55;;;;;;;17.60;10.48;;;32.30;57.30;;;;;;5083362;28;20038;-57
2021/06/19 11:16:41;;;;;;;15.25;9.40;;;32.40;57.50;;;;;;5090336;28;20067;-59
2021/06/19 11:19:32;;;;;;;17.25;10.10;;;32.40;56.30;;;;;;5093216;28;20544;-58
2021/06/19 11:22:53;;;;;;;11.98;9.27;;;32.10;56.60;;;;;;5091269;28;20043;-60
2021/06/19 11:25:42;;;;;;;17.85;9.68;;;32.50;56.30;;;;;;5091213;28;20050;-57
2021/06/19 11:28:29;;;;;;;16.27;9.07;;;32.40;56.20;;;;;;5087196;28;20032;-57
2021/06/19 11:31:20;;;;;;;14.30;8.60;;;32.60;55.10;;;;;;5076785;28;20104;-59
2021/06/19 11:34:05;;;;;;;16.15;9.25;;;32.70;54.80;;;;;;5059682;28;20534;-59
2021/06/19 11:36:58;;;;;;;12.13;9.45;;;32.70;55.40;;;;;;5075560;28;20250;-56
2021/06/19 11:39:43;;;;;;;10.98;8.85;;;32.90;55.40;;;;;;5080241;28;20032;-57
2021/06/19 11:42:27;;;;;;;17.98;9.38;;;32.50;56.10;;;;;;5071158;28;20031;-59
2021/06/19 11:45:15;;;;;;;16.92;10.00;;;32.10;57.10;;;;;;5074172;28;20506;-60
2021/06/19 11:48:10;;;;;;;13.95;9.80;;;31.90;56.60;;;;;;5074300;28;20035;-52
2021/06/19 11:51:05;;;;;;;11.63;8.88;;;31.70;56.50;;;;;;5056937;28;20032;-61
2021/06/19 11:53:51;;;;;;;15.50;9.35;;;32.20;54.90;;;;;;5092530;28;20062;-57
2021/06/19 11:56:40;;;;;;;20.95;9.65;;;32.50;56.40;;;;;;5086692;28;20514;-58
2021/06/19 11:59:26;;;;;;;13.55;9.52;;;33.10;55.40;;;;;;5069651;28;20046;-58
2021/06/19 12:02:13;;;;;;;10.40;9.30;;;33.20;54.90;;;;;;5072058;28;20371;-56
2021/06/19 12:04:57;;;;;;;14.88;9.20;;;33.20;55.00;;;;;;5090025;28;20074;-58
2021/06/19 12:07:41;;;;;;;12.40;9.80;;;33.40;54.40;;;;;;5088887;28;20486;-61
2021/06/19 12:10:29;;;;;;;14.10;9.90;;;33.50;54.30;;;;;;5087436;28;20113;-59
2021/06/19 12:13:13;;;;;;;13.82;9.63;;;33.50;54.10;;;;;;5085467;28;20518;-56
2021/06/19 12:15:58;;;;;;;15.73;9.68;;;33.50;53.90;;;;;;5076916;28;20051;-59
2021/06/19 12:18:47;;;;;;;13.60;10.10;;;33.50;54.00;;;;;;5090276;28;20046;-58
2021/06/19 12:21:39;;;;;;;13.68;10.00;;;34.00;53.80;;;;;;5090329;28;20073;-56
2021/06/19 12:24:26;;;;;;;20.67;10.43;;;33.90;54.10;;;;;;5074805;28;20395;-59
2021/06/19 12:27:15;;;;;;;19.05;10.32;;;33.80;54.10;;;;;;5074355;28;20084;-59
2021/06/19 12:30:01;;;;;;;14.10;9.15;;;33.80;54.50;;;;;;5087690;28;20086;-54
2021/06/19 12:32:45;;;;;;;15.88;9.80;;;33.40;53.30;;;;;;5074263;28;20043;-58
2021/06/19 12:35:29;;;;;;;15.50;7.88;;;33.50;52.20;;;;;;5090030;28;20030;-53
2021/06/19 12:38:18;;;;;;;13.82;7.95;;;33.50;50.00;;;;;;5089684;28;20031;-56
2021/06/19 12:41:06;;;;;;;15.60;8.68;;;33.90;49.10;;;;;;5089871;28;20887;-57
2021/06/19 12:43:53;;;;;;;14.75;8.32;;;33.80;50.50;;;;;;5089675;28;20035;-57
2021/06/19 12:46:37;;;;;;;15.88;9.20;;;34.00;50.40;;;;;;5061813;28;20035;-56
2021/06/19 12:49:21;;;;;;;16.15;9.10;;;33.70;50.80;;;;;;5091373;28;20043;-57
2021/06/19 12:52:05;;;;;;;16.45;7.68;;;33.60;52.50;;;;;;5089695;28;20105;-57
2021/06/19 12:55:12;;;;;;;16.10;9.10;;;33.50;51.50;;;;;;5070934;28;20031;-58
2021/06/19 12:58:14;;;;;;;18.48;8.00;;;33.50;51.60;;;;;;5076268;28;20093;-57
2021/06/19 13:00:59;;;;;;;20.55;10.23;;;33.30;51.80;;;;;;5077886;28;20163;-63
2021/06/19 13:03:48;;;;;;;13.23;8.20;;;33.60;51.90;;;;;;5084620;28;20027;-60
2021/06/19 13:06:45;;;;;;;17.92;9.18;;;33.90;52.40;;;;;;5066763;28;20565;-61
2021/06/19 13:09:48;;;;;;;15.43;8.63;;;34.00;50.50;;;;;;5095639;28;20518;-61
2021/06/19 13:12:50;;;;;;;16.33;8.38;;;34.00;50.30;;;;;;5081811;28;20019;-60
2021/06/19 13:15:35;;;;;;;17.88;8.30;;;34.00;50.30;;;;;;5094837;28;20032;-61
2021/06/19 13:18:19;;;;;;;14.38;8.80;;;34.00;51.30;;;;;;5094823;28;20035;-59
2021/06/19 13:21:08;;;;;;;14.30;8.80;;;33.80;51.50;;;;;;5095692;28;20042;-59
2021/06/19 13:23:52;;;;;;;18.02;9.13;;;34.00;51.40;;;;;;5087052;28;20081;-58
2021/06/19 13:26:37;;;;;;;10.48;8.48;;;34.20;52.40;;;;;;5095247;28;20534;-61
2021/06/19 13:29:23;;;;;;;16.95;9.23;;;34.30;52.20;;;;;;5065808;28;20102;-61
2021/06/19 13:32:08;;;;;;;19.02;8.63;;;34.30;51.90;;;;;;5089270;28;20034;-59
2021/06/19 13:35:00;;;;;;;16.17;8.80;;;34.70;52.10;;;;;;5074618;28;20118;-61
2021/06/19 13:37:44;;;;;;;17.65;8.90;;;34.80;52.40;;;;;;5089266;28;20054;-58
2021/06/19 13:40:28;;;;;;;12.15;8.25;;;34.40;52.60;;;;;;5094658;28;20074;-60
2021/06/19 13:43:13;;;;;;;14.38;9.43;;;34.80;52.10;;;;;;5089776;28;20093;-60
2021/06/19 13:45:56;;;;;;;16.63;8.48;;;34.90;51.70;;;;;;5087565;28;20438;-58
2021/06/19 13:48:40;;;;;;;18.30;8.35;;;34.40;51.80;;;;;;5081001;28;20093;-58
2021/06/19 13:51:25;;;;;;;18.55;8.70;;;34.60;50.90;;;;;;5088539;28;20031;-59
2021/06/19 13:54:10;;;;;;;14.98;8.07;;;34.30;50.40;;;;;;5081962;28;20150;-60
2021/06/19 13:56:56;;;;;;;18.63;9.35;;;34.60;50.20;;;;;;5081939;28;20111;-60
2021/06/19 13:59:41;;;;;;;16.73;9.45;;;34.60;50.90;;;;;;5080301;28;20093;-60
2021/06/19 14:02:25;;;;;;;16.35;8.75;;;35.00;50.90;;;;;;5087060;28;20090;-60
2021/06/19 14:05:10;;;;;;;17.80;8.57;;;35.20;50.40;;;;;;5079893;28;20063;-60
2021/06/19 14:07:54;;;;;;;15.50;8.40;;;35.50;48.80;;;;;;5072561;28;20036;-60
2021/06/19 14:10:38;;;;;;;13.57;7.97;;;35.20;49.30;;;;;;5080026;28;20043;-58
2021/06/19 14:13:22;;;;;;;14.07;8.15;;;35.50;48.00;;;;;;5082656;28;20071;-61
2021/06/19 14:16:06;;;;;;;16.48;7.95;;;35.50;48.20;;;;;;5078943;28;20032;-57